sensor_id;sensor_type;location;lat;lon;timestamp;P1;durP1;ratioP1;P2;durP2;ratioP2
64873;SDS011;51367;45.204;38.576;2023-04-03T00:01:38;3.42;;;3.13;;
64873;SDS011;51367;45.204;38.576;2023-04-03T00:04:04;15.45;;;3.13;;
64873;SDS011;51367;45.204;38.576;2023-04-03T00:06:31;3.95;;;3.03;;
64873;SDS011;51367;45.204;38.576;2023-04-03T00:08:57;2.85;;;2.30;;
64873;SDS011;51367;45.204;38.576;2023-04-03T00:11:23;3.60;;;2.67;;
64873;SDS011;51367;45.204;38.576;2023-04-03T00:13:50;3.33;;;2.10;;
64873;SDS011;51367;45.204;38.576;2023-04-03T00:16:17;2.05;;;1.70;;
64873;SDS011;51367;45.204;38.576;2023-04-03T00:18:43;2.35;;;2.15;;
64873;SDS011;51367;45.204;38.576;2023-04-03T00:21:10;3.80;;;2.05;;
64873;SDS011;51367;45.204;38.576;2023-04-03T00:23:37;2.60;;;1.83;;
64873;SDS011;51367;45.204;38.576;2023-04-03T00:26:03;2.70;;;2.50;;
64873;SDS011;51367;45.204;38.576;2023-04-03T00:28:30;2.90;;;1.63;;
64873;SDS011;51367;45.204;38.576;2023-04-03T00:30:56;2.90;;;2.03;;
64873;SDS011;51367;45.204;38.576;2023-04-03T00:33:21;2.00;;;1.40;;
64873;SDS011;51367;45.204;38.576;2023-04-03T00:35:48;2.00;;;1.85;;
64873;SDS011;51367;45.204;38.576;2023-04-03T00:38:14;14.07;;;2.70;;
64873;SDS011;51367;45.204;38.576;2023-04-03T00:40:44;7.47;;;2.13;;
64873;SDS011;51367;45.204;38.576;2023-04-03T00:43:12;10.90;;;3.38;;
64873;SDS011;51367;45.204;38.576;2023-04-03T00:45:44;3.30;;;2.55;;
64873;SDS011;51367;45.204;38.576;2023-04-03T00:48:55;23.33;;;3.38;;
64873;SDS011;51367;45.204;38.576;2023-04-03T00:51:11;4.00;;;2.38;;
64873;SDS011;51367;45.204;38.576;2023-04-03T00:53:42;2.58;;;1.70;;
64873;SDS011;51367;45.204;38.576;2023-04-03T00:56:12;21.50;;;2.55;;
64873;SDS011;51367;45.204;38.576;2023-04-03T00:58:44;11.98;;;2.53;;
64873;SDS011;51367;45.204;38.576;2023-04-03T01:01:16;12.00;;;3.33;;
64873;SDS011;51367;45.204;38.576;2023-04-03T01:03:48;8.80;;;2.00;;
64873;SDS011;51367;45.204;38.576;2023-04-03T01:06:14;7.93;;;2.47;;
64873;SDS011;51367;45.204;38.576;2023-04-03T01:08:44;21.08;;;1.60;;
64873;SDS011;51367;45.204;38.576;2023-04-03T01:11:12;9.05;;;2.03;;
64873;SDS011;51367;45.204;38.576;2023-04-03T01:13:38;4.85;;;1.90;;
64873;SDS011;51367;45.204;38.576;2023-04-03T01:16:06;6.82;;;2.67;;
64873;SDS011;51367;45.204;38.576;2023-04-03T01:18:33;5.07;;;2.28;;
64873;SDS011;51367;45.204;38.576;2023-04-03T01:26:55;1.48;;;1.08;;
64873;SDS011;51367;45.204;38.576;2023-04-03T01:29:21;3.25;;;2.00;;
64873;SDS011;51367;45.204;38.576;2023-04-03T01:31:51;22.35;;;2.90;;
64873;SDS011;51367;45.204;38.576;2023-04-03T01:34:27;2.10;;;1.27;;
64873;SDS011;51367;45.204;38.576;2023-04-03T01:36:54;14.65;;;2.05;;
64873;SDS011;51367;45.204;38.576;2023-04-03T01:39:21;5.75;;;1.92;;
64873;SDS011;51367;45.204;38.576;2023-04-03T01:41:47;4.50;;;1.50;;
64873;SDS011;51367;45.204;38.576;2023-04-03T01:44:23;3.65;;;1.90;;
64873;SDS011;51367;45.204;38.576;2023-04-03T01:46:49;5.00;;;2.03;;
64873;SDS011;51367;45.204;38.576;2023-04-03T01:49:15;5.28;;;2.22;;
64873;SDS011;51367;45.204;38.576;2023-04-03T01:51:41;3.17;;;2.05;;
64873;SDS011;51367;45.204;38.576;2023-04-03T01:54:07;3.38;;;1.77;;
64873;SDS011;51367;45.204;38.576;2023-04-03T01:56:33;3.72;;;1.70;;
64873;SDS011;51367;45.204;38.576;2023-04-03T01:58:59;3.03;;;1.85;;
64873;SDS011;51367;45.204;38.576;2023-04-03T02:01:25;3.33;;;2.25;;
64873;SDS011;51367;45.204;38.576;2023-04-03T02:03:52;5.72;;;2.22;;
64873;SDS011;51367;45.204;38.576;2023-04-03T02:06:18;4.05;;;1.90;;
64873;SDS011;51367;45.204;38.576;2023-04-03T02:08:44;3.13;;;1.70;;
64873;SDS011;51367;45.204;38.576;2023-04-03T02:11:09;11.52;;;2.53;;
64873;SDS011;51367;45.204;38.576;2023-04-03T02:13:35;2.78;;;1.60;;
64873;SDS011;51367;45.204;38.576;2023-04-03T02:16:08;1.60;;;1.50;;
64873;SDS011;51367;45.204;38.576;2023-04-03T02:18:36;5.00;;;1.67;;
64873;SDS011;51367;45.204;38.576;2023-04-03T02:21:02;12.35;;;1.80;;
64873;SDS011;51367;45.204;38.576;2023-04-03T02:23:28;3.88;;;1.63;;
64873;SDS011;51367;45.204;38.576;2023-04-03T02:26:02;3.13;;;1.67;;
64873;SDS011;51367;45.204;38.576;2023-04-03T02:28:35;2.15;;;1.60;;
64873;SDS011;51367;45.204;38.576;2023-04-03T02:31:02;3.15;;;1.85;;
64873;SDS011;51367;45.204;38.576;2023-04-03T02:33:30;9.20;;;2.25;;
64873;SDS011;51367;45.204;38.576;2023-04-03T02:35:57;3.45;;;1.67;;
64873;SDS011;51367;45.204;38.576;2023-04-03T02:38:24;3.25;;;1.85;;
64873;SDS011;51367;45.204;38.576;2023-04-03T02:40:51;2.17;;;1.70;;
64873;SDS011;51367;45.204;38.576;2023-04-03T02:43:17;10.75;;;2.08;;
64873;SDS011;51367;45.204;38.576;2023-04-03T02:45:43;2.13;;;1.67;;
64873;SDS011;51367;45.204;38.576;2023-04-03T02:48:10;11.75;;;1.40;;
64873;SDS011;51367;45.204;38.576;2023-04-03T02:50:35;3.40;;;1.55;;
64873;SDS011;51367;45.204;38.576;2023-04-03T02:53:01;2.28;;;1.30;;
64873;SDS011;51367;45.204;38.576;2023-04-03T02:55:27;2.65;;;1.50;;
64873;SDS011;51367;45.204;38.576;2023-04-03T02:57:55;17.67;;;1.77;;
64873;SDS011;51367;45.204;38.576;2023-04-03T03:00:21;3.08;;;2.00;;
64873;SDS011;51367;45.204;38.576;2023-04-03T03:02:48;1.45;;;1.10;;
64873;SDS011;51367;45.204;38.576;2023-04-03T03:05:14;2.08;;;1.70;;
64873;SDS011;51367;45.204;38.576;2023-04-03T03:07:40;3.00;;;2.17;;
64873;SDS011;51367;45.204;38.576;2023-04-03T03:10:06;3.53;;;1.67;;
64873;SDS011;51367;45.204;38.576;2023-04-03T03:12:33;2.60;;;1.75;;
64873;SDS011;51367;45.204;38.576;2023-04-03T03:14:59;1.15;;;1.05;;
64873;SDS011;51367;45.204;38.576;2023-04-03T03:17:25;5.65;;;2.03;;
64873;SDS011;51367;45.204;38.576;2023-04-03T03:19:51;1.75;;;1.20;;
64873;SDS011;51367;45.204;38.576;2023-04-03T03:22:18;2.15;;;1.92;;
64873;SDS011;51367;45.204;38.576;2023-04-03T03:24:44;1.70;;;1.33;;
64873;SDS011;51367;45.204;38.576;2023-04-03T03:27:10;4.78;;;1.33;;
64873;SDS011;51367;45.204;38.576;2023-04-03T03:29:37;6.45;;;1.60;;
64873;SDS011;51367;45.204;38.576;2023-04-03T03:32:04;1.02;;;0.95;;
64873;SDS011;51367;45.204;38.576;2023-04-03T03:34:31;1.80;;;1.65;;
64873;SDS011;51367;45.204;38.576;2023-04-03T03:36:58;2.03;;;1.23;;
64873;SDS011;51367;45.204;38.576;2023-04-03T03:39:24;1.83;;;1.42;;
64873;SDS011;51367;45.204;38.576;2023-04-03T03:41:50;1.27;;;1.17;;
64873;SDS011;51367;45.204;38.576;2023-04-03T03:44:19;1.30;;;1.20;;
64873;SDS011;51367;45.204;38.576;2023-04-03T03:46:45;5.05;;;2.00;;
64873;SDS011;51367;45.204;38.576;2023-04-03T03:49:11;2.08;;;1.40;;
64873;SDS011;51367;45.204;38.576;2023-04-03T03:51:37;1.65;;;1.52;;
64873;SDS011;51367;45.204;38.576;2023-04-03T03:54:05;2.38;;;1.55;;
64873;SDS011;51367;45.204;38.576;2023-04-03T03:56:31;0.88;;;0.82;;
64873;SDS011;51367;45.204;38.576;2023-04-03T03:58:58;5.68;;;1.60;;
64873;SDS011;51367;45.204;38.576;2023-04-03T04:01:24;9.40;;;2.15;;
64873;SDS011;51367;45.204;38.576;2023-04-03T04:03:50;1.75;;;1.25;;
64873;SDS011;51367;45.204;38.576;2023-04-03T04:06:22;2.07;;;1.50;;
64873;SDS011;51367;45.204;38.576;2023-04-03T04:08:50;2.50;;;1.65;;
64873;SDS011;51367;45.204;38.576;2023-04-03T04:11:16;1.40;;;1.30;;
64873;SDS011;51367;45.204;38.576;2023-04-03T04:13:43;1.55;;;1.45;;
64873;SDS011;51367;45.204;38.576;2023-04-03T04:16:12;1.20;;;1.08;;
64873;SDS011;51367;45.204;38.576;2023-04-03T04:18:38;2.40;;;1.85;;
64873;SDS011;51367;45.204;38.576;2023-04-03T04:21:04;3.13;;;1.85;;
64873;SDS011;51367;45.204;38.576;2023-04-03T04:23:30;2.17;;;1.75;;
64873;SDS011;51367;45.204;38.576;2023-04-03T04:25:57;2.67;;;1.77;;
64873;SDS011;51367;45.204;38.576;2023-04-03T04:28:25;2.00;;;1.73;;
64873;SDS011;51367;45.204;38.576;2023-04-03T04:30:53;2.97;;;1.98;;
64873;SDS011;51367;45.204;38.576;2023-04-03T04:33:21;1.88;;;1.23;;
64873;SDS011;51367;45.204;38.576;2023-04-03T04:35:47;2.75;;;1.38;;
64873;SDS011;51367;45.204;38.576;2023-04-03T04:38:15;1.33;;;1.27;;
64873;SDS011;51367;45.204;38.576;2023-04-03T04:40:41;1.85;;;1.60;;
64873;SDS011;51367;45.204;38.576;2023-04-03T04:43:07;4.80;;;2.45;;
64873;SDS011;51367;45.204;38.576;2023-04-03T04:45:34;1.67;;;1.58;;
64873;SDS011;51367;45.204;38.576;2023-04-03T04:48:00;2.63;;;2.08;;
64873;SDS011;51367;45.204;38.576;2023-04-03T04:50:26;2.03;;;1.60;;
64873;SDS011;51367;45.204;38.576;2023-04-03T04:52:54;2.75;;;1.83;;
64873;SDS011;51367;45.204;38.576;2023-04-03T04:55:20;1.50;;;1.40;;
64873;SDS011;51367;45.204;38.576;2023-04-03T04:57:46;1.98;;;1.73;;
64873;SDS011;51367;45.204;38.576;2023-04-03T05:00:12;2.50;;;1.88;;
64873;SDS011;51367;45.204;38.576;2023-04-03T05:02:39;2.40;;;1.58;;
64873;SDS011;51367;45.204;38.576;2023-04-03T05:05:05;4.18;;;3.15;;
64873;SDS011;51367;45.204;38.576;2023-04-03T05:07:33;2.40;;;1.75;;
64873;SDS011;51367;45.204;38.576;2023-04-03T05:09:59;3.15;;;1.90;;
64873;SDS011;51367;45.204;38.576;2023-04-03T05:12:26;3.60;;;2.25;;
64873;SDS011;51367;45.204;38.576;2023-04-03T05:14:57;2.10;;;1.90;;
64873;SDS011;51367;45.204;38.576;2023-04-03T05:17:24;4.88;;;2.30;;
64873;SDS011;51367;45.204;38.576;2023-04-03T05:19:54;1.70;;;1.60;;
64873;SDS011;51367;45.204;38.576;2023-04-03T05:22:21;4.10;;;1.92;;
64873;SDS011;51367;45.204;38.576;2023-04-03T05:24:48;1.67;;;1.58;;
64873;SDS011;51367;45.204;38.576;2023-04-03T05:27:15;3.17;;;2.38;;
64873;SDS011;51367;45.204;38.576;2023-04-03T05:29:46;2.28;;;1.70;;
64873;SDS011;51367;45.204;38.576;2023-04-03T05:32:17;1.90;;;1.60;;
64873;SDS011;51367;45.204;38.576;2023-04-03T05:34:46;1.90;;;1.40;;
64873;SDS011;51367;45.204;38.576;2023-04-03T05:37:12;1.77;;;1.65;;
64873;SDS011;51367;45.204;38.576;2023-04-03T05:39:39;2.10;;;1.70;;
64873;SDS011;51367;45.204;38.576;2023-04-03T05:42:07;7.63;;;1.80;;
64873;SDS011;51367;45.204;38.576;2023-04-03T05:44:33;1.63;;;1.52;;
64873;SDS011;51367;45.204;38.576;2023-04-03T05:47:01;2.13;;;1.90;;
64873;SDS011;51367;45.204;38.576;2023-04-03T05:49:27;2.65;;;1.80;;
64873;SDS011;51367;45.204;38.576;2023-04-03T05:51:53;1.88;;;1.67;;
64873;SDS011;51367;45.204;38.576;2023-04-03T05:54:25;1.80;;;1.70;;
64873;SDS011;51367;45.204;38.576;2023-04-03T05:57:05;2.97;;;1.48;;
64873;SDS011;51367;45.204;38.576;2023-04-03T05:59:31;3.08;;;1.77;;
64873;SDS011;51367;45.204;38.576;2023-04-03T06:01:59;1.80;;;1.38;;
64873;SDS011;51367;45.204;38.576;2023-04-03T06:04:26;3.35;;;1.60;;
64873;SDS011;51367;45.204;38.576;2023-04-03T06:06:54;2.83;;;2.15;;
64873;SDS011;51367;45.204;38.576;2023-04-03T06:09:22;3.78;;;1.85;;
64873;SDS011;51367;45.204;38.576;2023-04-03T06:11:50;2.10;;;1.85;;
64873;SDS011;51367;45.204;38.576;2023-04-03T06:14:17;1.90;;;1.50;;
64873;SDS011;51367;45.204;38.576;2023-04-03T06:16:43;3.05;;;1.98;;
64873;SDS011;51367;45.204;38.576;2023-04-03T06:19:10;4.47;;;1.85;;
64873;SDS011;51367;45.204;38.576;2023-04-03T06:21:41;1.80;;;1.65;;
64873;SDS011;51367;45.204;38.576;2023-04-03T06:24:07;2.00;;;1.75;;
64873;SDS011;51367;45.204;38.576;2023-04-03T06:26:35;2.03;;;1.83;;
64873;SDS011;51367;45.204;38.576;2023-04-03T06:29:00;4.93;;;1.63;;
64873;SDS011;51367;45.204;38.576;2023-04-03T06:31:27;2.38;;;1.70;;
64873;SDS011;51367;45.204;38.576;2023-04-03T06:33:53;1.92;;;1.48;;
64873;SDS011;51367;45.204;38.576;2023-04-03T06:36:19;1.95;;;1.85;;
64873;SDS011;51367;45.204;38.576;2023-04-03T06:38:46;2.03;;;1.80;;
64873;SDS011;51367;45.204;38.576;2023-04-03T06:41:12;2.28;;;2.08;;
64873;SDS011;51367;45.204;38.576;2023-04-03T06:43:38;2.38;;;1.80;;
64873;SDS011;51367;45.204;38.576;2023-04-03T06:46:04;7.50;;;1.95;;
64873;SDS011;51367;45.204;38.576;2023-04-03T06:48:30;1.67;;;1.50;;
64873;SDS011;51367;45.204;38.576;2023-04-03T06:50:56;1.48;;;1.38;;
64873;SDS011;51367;45.204;38.576;2023-04-03T06:53:22;1.75;;;1.58;;
64873;SDS011;51367;45.204;38.576;2023-04-03T06:55:49;1.50;;;1.40;;
64873;SDS011;51367;45.204;38.576;2023-04-03T06:58:14;1.42;;;1.25;;
64873;SDS011;51367;45.204;38.576;2023-04-03T07:00:42;1.35;;;1.25;;
64873;SDS011;51367;45.204;38.576;2023-04-03T07:03:08;1.27;;;1.17;;
64873;SDS011;51367;45.204;38.576;2023-04-03T07:05:34;1.25;;;1.15;;
64873;SDS011;51367;45.204;38.576;2023-04-03T07:08:00;1.35;;;1.25;;
64873;SDS011;51367;45.204;38.576;2023-04-03T07:10:26;1.48;;;1.38;;
64873;SDS011;51367;45.204;38.576;2023-04-03T07:12:52;2.78;;;1.75;;
64873;SDS011;51367;45.204;38.576;2023-04-03T07:15:18;2.08;;;1.45;;
64873;SDS011;51367;45.204;38.576;2023-04-03T07:17:44;2.10;;;1.45;;
64873;SDS011;51367;45.204;38.576;2023-04-03T07:20:11;1.48;;;1.38;;
64873;SDS011;51367;45.204;38.576;2023-04-03T07:22:37;1.63;;;1.50;;
64873;SDS011;51367;45.204;38.576;2023-04-03T07:25:03;1.38;;;1.27;;
64873;SDS011;51367;45.204;38.576;2023-04-03T07:27:31;2.75;;;1.17;;
64873;SDS011;51367;45.204;38.576;2023-04-03T07:29:57;1.10;;;1.10;;
64873;SDS011;51367;45.204;38.576;2023-04-03T07:32:23;1.23;;;1.13;;
64873;SDS011;51367;45.204;38.576;2023-04-03T07:34:49;1.02;;;1.02;;
64873;SDS011;51367;45.204;38.576;2023-04-03T07:37:15;16.95;;;1.30;;
64873;SDS011;51367;45.204;38.576;2023-04-03T07:39:43;1.83;;;1.30;;
64873;SDS011;51367;45.204;38.576;2023-04-03T07:42:10;1.33;;;1.25;;
64873;SDS011;51367;45.204;38.576;2023-04-03T07:44:37;1.42;;;1.33;;
64873;SDS011;51367;45.204;38.576;2023-04-03T07:47:03;1.58;;;1.23;;
64873;SDS011;51367;45.204;38.576;2023-04-03T07:49:29;2.70;;;1.50;;
64873;SDS011;51367;45.204;38.576;2023-04-03T07:51:55;0.80;;;0.80;;
64873;SDS011;51367;45.204;38.576;2023-04-03T07:54:21;1.02;;;1.00;;
64873;SDS011;51367;45.204;38.576;2023-04-03T07:56:47;0.80;;;0.80;;
64873;SDS011;51367;45.204;38.576;2023-04-03T07:59:13;1.35;;;1.25;;
64873;SDS011;51367;45.204;38.576;2023-04-03T08:01:39;1.05;;;1.00;;
64873;SDS011;51367;45.204;38.576;2023-04-03T08:04:05;1.05;;;0.98;;
64873;SDS011;51367;45.204;38.576;2023-04-03T08:06:32;1.30;;;1.15;;
64873;SDS011;51367;45.204;38.576;2023-04-03T08:09:00;1.25;;;1.20;;
64873;SDS011;51367;45.204;38.576;2023-04-03T08:11:27;1.35;;;1.25;;
64873;SDS011;51367;45.204;38.576;2023-04-03T08:13:53;3.03;;;1.20;;
64873;SDS011;51367;45.204;38.576;2023-04-03T08:16:20;3.28;;;1.50;;
64873;SDS011;51367;45.204;38.576;2023-04-03T08:18:47;1.42;;;1.33;;
64873;SDS011;51367;45.204;38.576;2023-04-03T08:21:14;1.50;;;1.40;;
64873;SDS011;51367;45.204;38.576;2023-04-03T08:23:40;1.90;;;1.80;;
64873;SDS011;51367;45.204;38.576;2023-04-03T08:26:11;2.85;;;1.30;;
64873;SDS011;51367;45.204;38.576;2023-04-03T08:28:38;1.20;;;1.20;;
64873;SDS011;51367;45.204;38.576;2023-04-03T08:31:05;1.60;;;1.50;;
64873;SDS011;51367;45.204;38.576;2023-04-03T08:33:33;1.40;;;1.30;;
64873;SDS011;51367;45.204;38.576;2023-04-03T08:36:02;1.50;;;1.40;;
64873;SDS011;51367;45.204;38.576;2023-04-03T08:38:29;1.80;;;1.48;;
64873;SDS011;51367;45.204;38.576;2023-04-03T08:41:57;3.78;;;1.67;;
64873;SDS011;51367;45.204;38.576;2023-04-03T08:47:02;2.42;;;1.63;;
64873;SDS011;51367;45.204;38.576;2023-04-03T08:49:33;1.90;;;1.65;;
64873;SDS011;51367;45.204;38.576;2023-04-03T08:52:13;1.63;;;1.52;;
64873;SDS011;51367;45.204;38.576;2023-04-03T08:55:01;1.60;;;1.33;;
64873;SDS011;51367;45.204;38.576;2023-04-03T08:57:34;1.35;;;1.00;;
64873;SDS011;51367;45.204;38.576;2023-04-03T09:00:05;0.98;;;0.93;;
64873;SDS011;51367;45.204;38.576;2023-04-03T09:02:46;3.03;;;1.45;;
64873;SDS011;51367;45.204;38.576;2023-04-03T09:05:18;1.50;;;1.13;;
64873;SDS011;51367;45.204;38.576;2023-04-03T09:07:47;1.38;;;0.90;;
64873;SDS011;51367;45.204;38.576;2023-04-03T09:10:27;1.67;;;1.23;;
64873;SDS011;51367;45.204;38.576;2023-04-03T09:12:59;1.20;;;0.70;;
64873;SDS011;51367;45.204;38.576;2023-04-03T09:15:30;0.95;;;0.80;;
64873;SDS011;51367;45.204;38.576;2023-04-03T09:18:01;1.08;;;0.93;;
64873;SDS011;51367;45.204;38.576;2023-04-03T09:23:13;1.08;;;0.85;;
64873;SDS011;51367;45.204;38.576;2023-04-03T09:25:44;0.77;;;0.77;;
64873;SDS011;51367;45.204;38.576;2023-04-03T09:28:10;0.80;;;0.80;;
64873;SDS011;51367;45.204;38.576;2023-04-03T09:30:37;2.28;;;1.00;;
64873;SDS011;51367;45.204;38.576;2023-04-03T09:33:03;0.75;;;0.75;;
64873;SDS011;51367;45.204;38.576;2023-04-03T09:35:31;0.93;;;0.93;;
64873;SDS011;51367;45.204;38.576;2023-04-03T09:40:37;1.10;;;0.90;;
64873;SDS011;51367;45.204;38.576;2023-04-03T09:43:30;0.80;;;0.80;;
64873;SDS011;51367;45.204;38.576;2023-04-03T09:45:56;1.45;;;0.85;;
64873;SDS011;51367;45.204;38.576;2023-04-03T09:51:37;2.47;;;0.90;;
64873;SDS011;51367;45.204;38.576;2023-04-03T09:56:56;0.80;;;0.80;;
64873;SDS011;51367;45.204;38.576;2023-04-03T09:59:27;2.17;;;0.88;;
64873;SDS011;51367;45.204;38.576;2023-04-03T10:01:57;0.93;;;0.77;;
64873;SDS011;51367;45.204;38.576;2023-04-03T10:04:25;1.15;;;1.02;;
64873;SDS011;51367;45.204;38.576;2023-04-03T10:07:03;1.40;;;1.10;;
64873;SDS011;51367;45.204;38.576;2023-04-03T10:09:54;1.48;;;1.05;;
64873;SDS011;51367;45.204;38.576;2023-04-03T10:12:21;0.95;;;0.70;;
64873;SDS011;51367;45.204;38.576;2023-04-03T10:14:55;1.13;;;1.10;;
64873;SDS011;51367;45.204;38.576;2023-04-03T10:22:43;4.50;;;0.98;;
64873;SDS011;51367;45.204;38.576;2023-04-03T10:26:03;1.38;;;1.20;;
64873;SDS011;51367;45.204;38.576;2023-04-03T10:28:40;0.80;;;0.80;;
64873;SDS011;51367;45.204;38.576;2023-04-03T10:33:42;1.08;;;0.80;;
64873;SDS011;51367;45.204;38.576;2023-04-03T10:53:29;0.90;;;0.90;;
64873;SDS011;51367;45.204;38.576;2023-04-03T10:56:12;0.70;;;0.70;;
64873;SDS011;51367;45.204;38.576;2023-04-03T11:02:04;1.40;;;1.30;;
64873;SDS011;51367;45.204;38.576;2023-04-03T11:04:37;3.22;;;1.65;;
64873;SDS011;51367;45.204;38.576;2023-04-03T11:09:44;1.08;;;1.08;;
64873;SDS011;51367;45.204;38.576;2023-04-03T11:14:58;1.02;;;0.93;;
64873;SDS011;51367;45.204;38.576;2023-04-03T11:17:30;1.17;;;0.90;;
64873;SDS011;51367;45.204;38.576;2023-04-03T11:20:18;1.50;;;1.10;;
64873;SDS011;51367;45.204;38.576;2023-04-03T11:25:57;1.10;;;0.80;;
64873;SDS011;51367;45.204;38.576;2023-04-03T11:28:46;3.97;;;1.13;;
64873;SDS011;51367;45.204;38.576;2023-04-03T11:34:31;4.63;;;3.20;;
64873;SDS011;51367;45.204;38.576;2023-04-03T11:37:01;7.22;;;4.05;;
64873;SDS011;51367;45.204;38.576;2023-04-03T11:39:37;2.17;;;1.45;;
64873;SDS011;51367;45.204;38.576;2023-04-03T11:42:21;3.75;;;3.17;;
64873;SDS011;51367;45.204;38.576;2023-04-03T11:45:00;2.72;;;1.98;;
64873;SDS011;51367;45.204;38.576;2023-04-03T11:48:02;1.80;;;1.63;;
64873;SDS011;51367;45.204;38.576;2023-04-03T11:50:52;6.00;;;4.65;;
64873;SDS011;51367;45.204;38.576;2023-04-03T11:53:52;7.68;;;4.13;;
64873;SDS011;51367;45.204;38.576;2023-04-03T12:29:27;4.72;;;2.28;;
64873;SDS011;51367;45.204;38.576;2023-04-03T12:34:49;5.53;;;4.10;;
64873;SDS011;51367;45.204;38.576;2023-04-03T12:46:03;5.30;;;4.32;;
64873;SDS011;51367;45.204;38.576;2023-04-03T12:48:58;9.55;;;3.75;;
64873;SDS011;51367;45.204;38.576;2023-04-03T12:54:13;14.73;;;10.23;;
64873;SDS011;51367;45.204;38.576;2023-04-03T12:56:43;11.80;;;9.55;;
64873;SDS011;51367;45.204;38.576;2023-04-03T12:59:43;6.13;;;3.28;;
64873;SDS011;51367;45.204;38.576;2023-04-03T13:02:09;2.88;;;2.30;;
64873;SDS011;51367;45.204;38.576;2023-04-03T13:04:44;8.85;;;6.57;;
64873;SDS011;51367;45.204;38.576;2023-04-03T13:07:44;27.02;;;19.90;;
64873;SDS011;51367;45.204;38.576;2023-04-03T13:12:33;22.85;;;16.10;;
64873;SDS011;51367;45.204;38.576;2023-04-03T13:17:51;18.02;;;13.05;;
64873;SDS011;51367;45.204;38.576;2023-04-03T13:20:21;24.33;;;16.50;;
64873;SDS011;51367;45.204;38.576;2023-04-03T13:22:49;15.38;;;10.73;;
64873;SDS011;51367;45.204;38.576;2023-04-03T13:25:27;16.08;;;10.68;;
64873;SDS011;51367;45.204;38.576;2023-04-03T13:27:56;10.50;;;8.73;;
64873;SDS011;51367;45.204;38.576;2023-04-03T13:30:27;23.63;;;12.73;;
64873;SDS011;51367;45.204;38.576;2023-04-03T13:32:59;19.67;;;13.77;;
64873;SDS011;51367;45.204;38.576;2023-04-03T13:35:30;15.95;;;11.90;;
64873;SDS011;51367;45.204;38.576;2023-04-03T13:38:07;19.13;;;12.43;;
64873;SDS011;51367;45.204;38.576;2023-04-03T13:40:57;14.60;;;9.48;;
64873;SDS011;51367;45.204;38.576;2023-04-03T13:43:34;14.48;;;9.43;;
64873;SDS011;51367;45.204;38.576;2023-04-03T13:46:19;10.97;;;8.03;;
64873;SDS011;51367;45.204;38.576;2023-04-03T13:48:49;12.10;;;7.28;;
64873;SDS011;51367;45.204;38.576;2023-04-03T13:51:22;19.85;;;8.40;;
64873;SDS011;51367;45.204;38.576;2023-04-03T13:53:54;5.43;;;4.63;;
64873;SDS011;51367;45.204;38.576;2023-04-03T13:56:38;6.63;;;4.72;;
64873;SDS011;51367;45.204;38.576;2023-04-03T14:04:32;7.72;;;4.85;;
64873;SDS011;51367;45.204;38.576;2023-04-03T14:07:14;11.90;;;6.65;;
64873;SDS011;51367;45.204;38.576;2023-04-03T14:09:41;5.95;;;4.80;;
64873;SDS011;51367;45.204;38.576;2023-04-03T14:12:08;2.53;;;2.17;;
64873;SDS011;51367;45.204;38.576;2023-04-03T14:14:43;3.60;;;2.60;;
64873;SDS011;51367;45.204;38.576;2023-04-03T14:17:15;6.00;;;2.67;;
64873;SDS011;51367;45.204;38.576;2023-04-03T14:22:20;4.78;;;3.13;;
64873;SDS011;51367;45.204;38.576;2023-04-03T14:24:48;4.50;;;3.15;;
64873;SDS011;51367;45.204;38.576;2023-04-03T14:27:20;4.53;;;2.70;;
64873;SDS011;51367;45.204;38.576;2023-04-03T14:29:51;4.65;;;3.83;;
64873;SDS011;51367;45.204;38.576;2023-04-03T14:32:19;6.43;;;4.68;;
64873;SDS011;51367;45.204;38.576;2023-04-03T14:34:46;6.97;;;4.30;;
64873;SDS011;51367;45.204;38.576;2023-04-03T14:37:14;4.70;;;3.03;;
64873;SDS011;51367;45.204;38.576;2023-04-03T14:39:43;5.80;;;2.63;;
64873;SDS011;51367;45.204;38.576;2023-04-03T14:42:14;2.42;;;1.83;;
64873;SDS011;51367;45.204;38.576;2023-04-03T14:44:42;2.58;;;1.73;;
64873;SDS011;51367;45.204;38.576;2023-04-03T14:47:12;1.60;;;1.50;;
64873;SDS011;51367;45.204;38.576;2023-04-03T14:49:39;2.08;;;1.38;;
64873;SDS011;51367;45.204;38.576;2023-04-03T14:52:05;1.20;;;1.20;;
64873;SDS011;51367;45.204;38.576;2023-04-03T14:54:31;2.60;;;1.42;;
64873;SDS011;51367;45.204;38.576;2023-04-03T14:56:58;1.95;;;1.77;;
64873;SDS011;51367;45.204;38.576;2023-04-03T14:59:26;1.48;;;1.33;;
64873;SDS011;51367;45.204;38.576;2023-04-03T15:01:52;2.10;;;1.17;;
64873;SDS011;51367;45.204;38.576;2023-04-03T15:04:19;1.73;;;1.40;;
64873;SDS011;51367;45.204;38.576;2023-04-03T15:06:47;4.72;;;1.52;;
64873;SDS011;51367;45.204;38.576;2023-04-03T15:09:24;1.85;;;1.25;;
64873;SDS011;51367;45.204;38.576;2023-04-03T15:11:53;1.50;;;1.33;;
64873;SDS011;51367;45.204;38.576;2023-04-03T15:14:20;13.15;;;1.25;;
64873;SDS011;51367;45.204;38.576;2023-04-03T15:16:46;3.65;;;1.30;;
64873;SDS011;51367;45.204;38.576;2023-04-03T15:19:13;1.60;;;1.50;;
64873;SDS011;51367;45.204;38.576;2023-04-03T15:21:39;1.15;;;1.05;;
64873;SDS011;51367;45.204;38.576;2023-04-03T15:24:06;1.40;;;1.30;;
64873;SDS011;51367;45.204;38.576;2023-04-03T15:26:32;2.25;;;1.40;;
64873;SDS011;51367;45.204;38.576;2023-04-03T15:28:58;1.15;;;1.15;;
64873;SDS011;51367;45.204;38.576;2023-04-03T15:31:24;1.15;;;1.05;;
64873;SDS011;51367;45.204;38.576;2023-04-03T15:33:50;1.13;;;1.02;;
64873;SDS011;51367;45.204;38.576;2023-04-03T15:36:16;1.58;;;1.48;;
64873;SDS011;51367;45.204;38.576;2023-04-03T15:38:42;1.35;;;1.25;;
64873;SDS011;51367;45.204;38.576;2023-04-03T15:41:08;3.80;;;1.63;;
64873;SDS011;51367;45.204;38.576;2023-04-03T15:43:34;1.63;;;1.52;;
64873;SDS011;51367;45.204;38.576;2023-04-03T15:46:00;1.95;;;1.42;;
64873;SDS011;51367;45.204;38.576;2023-04-03T15:48:27;1.30;;;1.27;;
64873;SDS011;51367;45.204;38.576;2023-04-03T15:50:54;3.08;;;2.05;;
64873;SDS011;51367;45.204;38.576;2023-04-03T15:53:20;1.88;;;1.70;;
64873;SDS011;51367;45.204;38.576;2023-04-03T15:55:46;1.35;;;1.30;;
64873;SDS011;51367;45.204;38.576;2023-04-03T15:58:12;1.95;;;1.73;;
64873;SDS011;51367;45.204;38.576;2023-04-03T16:00:38;10.40;;;1.50;;
64873;SDS011;51367;45.204;38.576;2023-04-03T16:03:06;3.05;;;1.38;;
64873;SDS011;51367;45.204;38.576;2023-04-03T16:08:03;1.88;;;1.77;;
64873;SDS011;51367;45.204;38.576;2023-04-03T16:10:30;4.15;;;2.45;;
64873;SDS011;51367;45.204;38.576;2023-04-03T16:12:56;3.13;;;2.05;;
64873;SDS011;51367;45.204;38.576;2023-04-03T16:15:23;2.42;;;1.80;;
64873;SDS011;51367;45.204;38.576;2023-04-03T16:17:50;1.70;;;1.60;;
64873;SDS011;51367;45.204;38.576;2023-04-03T16:20:16;2.45;;;1.60;;
64873;SDS011;51367;45.204;38.576;2023-04-03T16:22:43;1.20;;;1.10;;
64873;SDS011;51367;45.204;38.576;2023-04-03T16:25:10;3.30;;;1.35;;
64873;SDS011;51367;45.204;38.576;2023-04-03T16:27:37;1.75;;;1.63;;
64873;SDS011;51367;45.204;38.576;2023-04-03T16:30:03;1.77;;;1.60;;
64873;SDS011;51367;45.204;38.576;2023-04-03T16:32:30;1.73;;;1.20;;
64873;SDS011;51367;45.204;38.576;2023-04-03T16:34:57;1.73;;;1.60;;
64873;SDS011;51367;45.204;38.576;2023-04-03T16:37:23;4.30;;;1.50;;
64873;SDS011;51367;45.204;38.576;2023-04-03T16:39:50;1.40;;;1.30;;
64873;SDS011;51367;45.204;38.576;2023-04-03T16:42:16;2.35;;;1.50;;
64873;SDS011;51367;45.204;38.576;2023-04-03T16:44:42;2.05;;;1.70;;
64873;SDS011;51367;45.204;38.576;2023-04-03T16:47:08;2.75;;;1.65;;
64873;SDS011;51367;45.204;38.576;2023-04-03T16:49:36;3.20;;;1.02;;